Time;durP1;ratioP1;P1;durP2;ratioP2;P2;SDS_P1;SDS_P2;PMS_P1;PMS_P2;Temp;Humidity;BMP_temperature;BMP_pressure;BME280_temperature;BME280_humidity;BME280_pressure;Samples;Min_cycle;Max_cycle;Signal;HPM_P1;HPM_P2
2020/12/17 00:01:33;;;;;;;9.78;5.20;;;;;;;3.66;79.85;98629.22;1671235;85;21313;-69
2020/12/17 00:04:02;;;;;;;12.30;5.25;;;;;;;3.67;79.56;98634.73;1671526;84;21317;-69
2020/12/17 00:06:32;;;;;;;9.60;5.30;;;;;;;3.60;79.48;98636.81;1670449;84;21580;-70
2020/12/17 00:09:00;;;;;;;9.50;5.20;;;;;;;3.57;79.57;98637.44;1669004;85;21186;-69
2020/12/17 00:11:28;;;;;;;14.80;6.12;;;;;;;3.54;79.71;98631.99;1670856;85;21309;-70
2020/12/17 00:13:57;;;;;;;14.33;5.40;;;;;;;3.52;79.82;98639.42;1670677;86;21203;-70
2020/12/17 00:16:26;;;;;;;10.80;6.30;;;;;;;3.49;79.89;98640.42;1670403;84;21325;-69
2020/12/17 00:18:55;;;;;;;13.15;7.08;;;;;;;3.42;80.01;98639.55;1659980;85;21159;-70
2020/12/17 00:21:23;;;;;;;12.58;5.42;;;;;;;3.34;80.42;98643.36;1646089;85;21198;-70
2020/12/17 00:23:51;;;;;;;9.70;4.90;;;;;;;3.32;80.47;98643.05;1646214;87;21189;-69
2020/12/17 00:26:19;;;;;;;11.18;5.60;;;;;;;3.32;80.54;98650.30;1646458;85;21175;-69
2020/12/17 00:28:47;;;;;;;12.55;5.70;;;;;;;3.33;80.58;98650.68;1646315;85;21178;-70
2020/12/17 00:31:17;;;;;;;10.70;5.37;;;;;;;3.27;80.70;98653.55;1646358;85;21185;-70
2020/12/17 00:33:49;;;;;;;14.53;6.12;;;;;;;3.18;81.17;98653.22;1646710;87;21165;-70
2020/12/17 00:36:23;;;;;;;10.68;6.20;;;;;;;3.14;81.13;98658.14;1646514;87;21191;-70
2020/12/17 00:38:51;;;;;;;12.95;6.10;;;;;;;3.11;81.08;98662.16;1646047;87;21163;-70
2020/12/17 00:41:19;;;;;;;10.45;5.55;;;;;;;3.08;81.33;98666.14;1635375;86;21202;-69
2020/12/17 00:43:47;;;;;;;8.38;5.05;;;;;;;3.06;81.49;98669.25;1646138;87;21241;-70
2020/12/17 00:46:16;;;;;;;14.00;6.45;;;;;;;3.03;81.64;98660.44;1646243;86;21143;-69
2020/12/17 00:48:44;;;;;;;10.70;6.12;;;;;;;3.01;81.69;98657.10;1646390;85;21194;-69
2020/12/17 00:51:16;;;;;;;15.18;5.72;;;;;;;3.00;81.90;98658.00;1646269;87;21567;-72
2020/12/17 00:53:44;;;;;;;10.82;5.17;;;;;;;2.97;82.00;98656.88;1646324;87;21582;-68
2020/12/17 00:56:12;;;;;;;10.00;5.67;;;;;;;2.86;82.84;98656.99;1646586;85;21162;-68
2020/12/17 00:58:41;;;;;;;10.80;4.47;;;;;;;2.84;82.74;98647.25;1646213;85;21179;-70
2020/12/17 01:01:09;;;;;;;10.80;5.15;;;;;;;2.85;83.01;98651.92;1646115;85;21577;-70
2020/12/17 01:03:38;;;;;;;10.65;5.65;;;;;;;2.88;82.45;98648.75;1646106;87;21230;-68
2020/12/17 01:06:09;;;;;;;10.13;4.90;;;;;;;2.91;82.25;98652.91;1646458;85;21556;-69
2020/12/17 01:08:37;;;;;;;11.15;6.40;;;;;;;2.94;82.31;98655.31;1646377;86;21186;-69
2020/12/17 01:11:04;;;;;;;12.15;6.10;;;;;;;2.94;82.26;98652.75;1646866;87;21189;-69
2020/12/17 01:13:32;;;;;;;13.22;5.65;;;;;;;2.95;82.14;98655.70;1646529;87;21204;-68
2020/12/17 01:16:01;;;;;;;11.45;4.67;;;;;;;2.95;82.12;98658.27;1646319;85;21618;-68
2020/12/17 01:18:28;;;;;;;11.08;4.97;;;;;;;2.99;81.99;98666.63;1646280;86;21183;-68
2020/12/17 01:20:56;;;;;;;12.28;5.78;;;;;;;3.00;82.03;98654.98;1646117;85;21190;-68
2020/12/17 01:23:24;;;;;;;17.98;6.75;;;;;;;2.98;81.97;98654.25;1646349;86;21173;-69
2020/12/17 01:25:52;;;;;;;10.88;6.12;;;;;;;2.97;82.17;98652.59;1646065;87;21238;-69
2020/12/17 01:28:21;;;;;;;13.58;5.72;;;;;;;2.97;82.00;98648.73;1646213;87;21179;-69
2020/12/17 01:30:49;;;;;;;13.05;5.72;;;;;;;2.97;82.01;98642.32;1646430;86;21562;-68
2020/12/17 01:33:18;;;;;;;16.23;5.83;;;;;;;2.91;82.37;98642.66;1646048;86;21167;-69
2020/12/17 01:35:46;;;;;;;9.03;5.90;;;;;;;2.86;82.64;98640.77;1646140;87;21154;-68
2020/12/17 01:38:14;;;;;;;9.05;4.72;;;;;;;2.87;82.48;98636.02;1646052;85;21195;-68
2020/12/17 01:40:46;;;;;;;9.35;4.40;;;;;;;2.80;83.08;98641.89;1646100;87;21187;-69
2020/12/17 01:43:14;;;;;;;9.55;5.05;;;;;;;2.85;82.80;98645.06;1646358;87;21185;-68
2020/12/17 01:45:42;;;;;;;8.03;5.00;;;;;;;2.85;82.87;98645.06;1646329;86;21186;-65
2020/12/17 01:48:14;;;;;;;10.72;6.05;;;;;;;2.80;83.13;98645.74;1646200;85;21233;-65
2020/12/17 01:50:45;;;;;;;13.83;6.12;;;;;;;2.70;83.67;98644.56;1646224;87;21606;-67
2020/12/17 01:53:13;;;;;;;8.75;3.58;;;;;;;2.62;84.18;98646.68;1646534;85;21128;-65
2020/12/17 01:55:41;;;;;;;11.78;5.53;;;;;;;2.58;84.20;98652.03;1646190;86;21181;-65
2020/12/17 01:58:13;;;;;;;11.80;5.28;;;;;;;2.64;84.00;98644.05;1646325;87;21170;-65
2020/12/17 02:00:43;;;;;;;12.45;5.75;;;;;;;2.63;83.84;98653.92;1646033;86;21187;-65
2020/12/17 02:03:11;;;;;;;10.18;5.25;;;;;;;2.63;84.04;98657.77;1616726;87;21182;-65
2020/12/17 02:05:39;;;;;;;11.18;6.03;;;;;;;2.56;84.28;98659.82;1646151;85;21178;-65
2020/12/17 02:08:08;;;;;;;9.15;4.70;;;;;;;2.62;84.32;98651.81;1646084;85;21242;-65
2020/12/17 02:10:37;;;;;;;7.00;4.05;;;;;;;2.63;84.21;98657.77;1646069;86;21188;-65
2020/12/17 02:13:05;;;;;;;10.68;5.20;;;;;;;2.71;83.93;98660.78;1646138;85;21241;-65
2020/12/17 02:15:33;;;;;;;11.15;5.42;;;;;;;2.82;83.72;98664.91;1646208;87;21189;-65
2020/12/17 02:18:01;;;;;;;12.10;6.53;;;;;;;2.82;83.64;98659.34;1646078;87;21169;-65
2020/12/17 02:20:29;;;;;;;11.22;5.62;;;;;;;2.90;83.34;98652.53;1645959;86;21642;-66
2020/12/17 02:23:04;;;;;;;10.40;5.00;;;;;;;2.97;83.03;98652.59;1645968;87;21599;-69
2020/12/17 02:25:32;;;;;;;11.50;4.92;;;;;;;3.06;82.94;98643.59;1645594;87;21212;-70
2020/12/17 02:28:00;;;;;;;9.60;5.25;;;;;;;3.05;82.56;98641.92;1645699;87;21314;-69
2020/12/17 02:30:28;;;;;;;13.20;6.25;;;;;;;2.92;82.97;98641.72;1645683;87;21722;-66
2020/12/17 02:32:57;;;;;;;12.58;5.72;;;;;;;2.84;83.21;98643.87;1631073;86;21233;-66
2020/12/17 02:35:26;;;;;;;10.80;5.97;;;;;;;2.74;83.82;98647.80;1646118;87;21170;-66
2020/12/17 02:37:56;;;;;;;11.68;6.25;;;;;;;2.78;83.44;98648.02;1645598;87;21706;-66
2020/12/17 02:40:24;;;;;;;9.68;5.05;;;;;;;2.68;83.90;98646.84;1645820;87;21190;-66
2020/12/17 02:42:51;;;;;;;12.50;6.45;;;;;;;2.74;83.65;98648.63;1645760;87;21628;-68
2020/12/17 02:45:20;;;;;;;12.45;5.37;;;;;;;2.61;83.98;98641.17;1646100;87;21194;-67
2020/12/17 02:47:48;;;;;;;12.33;5.85;;;;;;;2.66;84.06;98646.91;1646031;87;21225;-67
2020/12/17 02:50:16;;;;;;;10.75;5.67;;;;;;;2.68;83.88;98645.56;1646127;87;21162;-66
2020/12/17 02:52:44;;;;;;;10.93;4.92;;;;;;;2.58;84.18;98644.34;1645953;87;21194;-67
2020/12/17 02:55:12;;;;;;;8.68;3.67;;;;;;;2.57;84.08;98649.92;1645914;86;21614;-66
2020/12/17 02:57:40;;;;;;;9.38;4.30;;;;;;;2.56;83.81;98651.30;1645905;87;21165;-66
2020/12/17 03:00:12;;;;;;;15.78;6.78;;;;;;;2.49;84.33;98647.38;1645688;87;21308;-66
2020/12/17 03:02:39;;;;;;;10.58;6.20;;;;;;;2.43;84.83;98640.81;1646005;87;21183;-66
2020/12/17 03:05:07;;;;;;;16.50;5.47;;;;;;;2.38;85.22;98647.44;1645930;87;21590;-66
2020/12/17 03:07:35;;;;;;;9.70;5.60;;;;;;;2.33;85.56;98644.75;1645934;87;21167;-67
2020/12/17 03:10:06;;;;;;;15.78;6.30;;;;;;;2.29;85.89;98645.35;1645978;87;21855;-70
2020/12/17 03:12:34;;;;;;;12.63;4.78;;;;;;;2.24;86.02;98639.61;1645811;87;21301;-69
2020/12/17 03:15:02;;;;;;;9.28;4.90;;;;;;;2.31;85.46;98642.69;1645931;87;21287;-68
2020/12/17 03:17:29;;;;;;;12.28;4.97;;;;;;;2.27;85.81;98640.73;1646100;87;21191;-68
2020/12/17 03:19:57;;;;;;;10.18;5.78;;;;;;;2.27;85.89;98643.30;1652531;85;21163;-68
2020/12/17 03:22:26;;;;;;;9.20;5.42;;;;;;;2.24;86.09;98638.33;1670683;85;21179;-69
2020/12/17 03:25:09;;;;;;;9.65;5.08;;;;;;;2.25;86.00;98631.03;1710030;82;21227;-71
2020/12/17 03:27:37;;;;;;;12.35;5.47;;;;;;;2.27;86.26;98635.61;1710300;82;21584;-71
2020/12/17 03:30:06;;;;;;;10.65;5.42;;;;;;;2.24;86.43;98633.65;1710203;83;21136;-69
2020/12/17 03:32:34;;;;;;;7.45;5.35;;;;;;;2.28;86.29;98641.56;1715816;83;21144;-71
2020/12/17 03:35:03;;;;;;;7.47;4.83;;;;;;;2.31;85.97;98636.28;1710145;83;21639;-69
2020/12/17 03:37:31;;;;;;;10.13;4.55;;;;;;;2.36;85.74;98636.45;1710221;83;21583;-69
2020/12/17 03:39:59;;;;;;;7.62;3.47;;;;;;;2.30;86.21;98638.47;1710426;83;21229;-70
2020/12/17 03:42:27;;;;;;;14.38;6.65;;;;;;;2.28;86.26;98637.72;1710280;83;21135;-68
2020/12/17 03:44:55;;;;;;;9.38;5.15;;;;;;;2.25;86.48;98632.75;1710017;83;21630;-68
2020/12/17 03:47:23;;;;;;;8.63;4.87;;;;;;;2.28;86.33;98632.15;1710110;82;21171;-71
2020/12/17 03:49:51;;;;;;;12.85;5.50;;;;;;;2.22;86.75;98629.04;1710445;82;21136;-69
2020/12/17 03:52:19;;;;;;;6.87;3.65;;;;;;;2.24;86.84;98625.96;1710113;83;21167;-69
2020/12/17 03:54:47;;;;;;;15.15;6.58;;;;;;;2.24;86.98;98633.20;1710090;83;21166;-66
2020/12/17 03:57:15;;;;;;;10.50;5.40;;;;;;;2.17;87.39;98625.44;1692164;84;21195;-68
2020/12/17 03:59:43;;;;;;;13.05;5.50;;;;;;;2.26;86.98;98621.58;1710244;83;21171;-66
2020/12/17 04:02:11;;;;;;;7.85;4.20;;;;;;;2.22;87.28;98628.59;1710382;83;21176;-66
2020/12/17 04:04:39;;;;;;;15.75;6.83;;;;;;;2.29;87.02;98624.84;1710211;83;21579;-67
2020/12/17 04:07:07;;;;;;;11.12;4.80;;;;;;;2.26;87.29;98625.42;1710309;83;21164;-65
2020/12/17 04:09:35;;;;;;;14.47;6.92;;;;;;;2.31;87.10;98628.59;1710041;83;21175;-68
2020/12/17 04:12:03;;;;;;;6.80;5.08;;;;;;;2.22;87.55;98625.19;1710200;83;21187;-65
2020/12/17 04:14:31;;;;;;;9.55;5.92;;;;;;;2.28;87.13;98634.72;1710290;83;21604;-65
2020/12/17 04:16:59;;;;;;;12.40;6.85;;;;;;;2.19;87.77;98635.15;1710354;83;21140;-65
2020/12/17 04:19:27;;;;;;;21.02;5.80;;;;;;;2.15;88.16;98631.08;1710042;83;21174;-67
2020/12/17 04:21:55;;;;;;;11.90;5.87;;;;;;;2.20;87.92;98638.55;1710499;83;21490;-66
2020/12/17 04:24:23;;;;;;;10.15;4.37;;;;;;;2.21;87.89;98637.66;1735686;82;21557;-68
2020/12/17 04:26:52;;;;;;;12.63;4.55;;;;;;;2.16;88.24;98631.91;1709369;83;21368;-65
2020/12/17 04:29:21;;;;;;;8.93;6.22;;;;;;;2.18;88.16;98633.97;1709470;82;21305;-66
2020/12/17 04:31:49;;;;;;;11.20;4.70;;;;;;;2.21;87.92;98632.52;1709265;82;21219;-67
2020/12/17 04:34:17;;;;;;;9.85;6.40;;;;;;;2.26;87.64;98633.94;1708980;82;21136;-67
2020/12/17 04:36:47;;;;;;;10.68;5.70;;;;;;;2.23;88.06;98630.70;1708976;82;21223;-67
2020/12/17 04:39:17;;;;;;;10.53;5.58;;;;;;;2.22;88.24;98626.47;1709284;84;21676;-66
2020/12/17 04:41:47;;;;;;;8.95;5.10;;;;;;;2.22;88.29;98629.87;1709161;83;21199;-69
2020/12/17 04:44:28;;;;;;;10.45;5.00;;;;;;;2.23;88.06;98622.56;1684642;84;21193;-69
2020/12/17 04:47:03;;;;;;;14.00;5.92;;;;;;;2.19;88.34;98627.91;1658674;86;21322;-69
2020/12/17 04:49:38;;;;;;;16.12;6.72;;;;;;;2.22;88.20;98622.19;1675370;86;21171;-70
2020/12/17 04:52:08;;;;;;;;;;;;;;;2.21;88.17;98626.95;1659234;85;21178;-70
2020/12/17 04:54:36;;;;;;;11.35;6.20;;;;;;;2.10;88.41;98630.46;1687758;83;20355;-70
2020/12/17 04:57:15;;;;;;;12.10;5.92;;;;;;;2.13;88.42;98636.74;1687748;85;21721;-67
2020/12/17 04:59:50;;;;;;;9.35;5.97;;;;;;;2.24;87.85;98638.78;1675426;86;21195;-66
2020/12/17 05:02:21;;;;;;;13.03;6.12;;;;;;;2.22;88.10;98632.44;1684912;85;21308;-66
2020/12/17 05:04:53;;;;;;;17.70;6.08;;;;;;;2.26;88.37;98642.91;1687675;85;21295;-66
2020/12/17 05:07:23;;;;;;;13.18;6.03;;;;;;;2.25;88.26;98648.97;1687908;85;21179;-66
2020/12/17 05:09:52;;;;;;;10.38;5.10;;;;;;;2.26;88.09;98646.76;1687868;84;21212;-66
2020/12/17 05:12:21;;;;;;;7.95;3.17;;;;;;;2.28;87.84;98645.41;1688056;85;21175;-66
2020/12/17 05:14:49;;;;;;;9.33;4.35;;;;;;;2.36;87.76;98642.86;1687903;85;21160;-66
2020/12/17 05:17:17;;;;;;;10.38;5.35;;;;;;;2.44;87.50;98637.35;1687691;85;21191;-66
2020/12/17 05:19:45;;;;;;;16.67;6.62;;;;;;;2.44;87.57;98636.07;1687762;85;21200;-66
2020/12/17 05:22:16;;;;;;;14.35;6.87;;;;;;;2.42;87.50;98621.20;1687915;84;21183;-66
2020/12/17 05:24:46;;;;;;;15.45;6.72;;;;;;;2.35;87.94;98624.53;1687350;85;21706;-66
2020/12/17 05:27:16;;;;;;;16.05;6.72;;;;;;;2.34;87.91;98631.84;1690028;83;21201;-67
2020/12/17 05:29:46;;;;;;;11.68;6.08;;;;;;;2.37;87.86;98638.56;1680851;84;21161;-66
2020/12/17 05:32:18;;;;;;;15.25;6.78;;;;;;;2.35;87.90;98642.47;1634238;88;21157;-67
2020/12/17 05:34:46;;;;;;;14.87;7.90;;;;;;;2.34;87.83;98639.52;1667964;84;21152;-66
2020/12/17 05:37:15;;;;;;;13.18;6.47;;;;;;;2.25;87.73;98649.41;1660463;86;21758;-67
2020/12/17 05:39:44;;;;;;;15.13;6.60;;;;;;;2.18;88.25;98652.70;1687603;84;21557;-67
2020/12/17 05:42:13;;;;;;;14.95;5.33;;;;;;;2.28;87.73;98659.06;1670768;84;21349;-66
2020/12/17 05:44:41;;;;;;;10.70;4.95;;;;;;;2.28;87.46;98662.07;1681078;84;21163;-68
2020/12/17 05:47:14;;;;;;;12.03;4.87;;;;;;;2.28;87.46;98659.51;1681973;84;21174;-67
2020/12/17 05:49:42;;;;;;;13.70;5.25;;;;;;;2.35;87.36;98672.40;1670698;84;21152;-66
2020/12/17 05:52:23;;;;;;;16.52;5.58;;;;;;;2.34;87.10;98673.30;1707407;83;21172;-68
2020/12/17 05:55:03;;;;;;;12.40;5.60;;;;;;;2.35;87.10;98680.92;1675726;85;21164;-69
2020/12/17 05:57:32;;;;;;;12.33;4.92;;;;;;;2.37;86.89;98675.73;1632584;88;21218;-68
2020/12/17 06:00:04;;;;;;;13.98;6.40;;;;;;;2.34;86.38;98676.69;1637929;86;21378;-69
2020/12/17 06:02:35;;;;;;;14.65;5.97;;;;;;;2.20;86.87;98676.98;1635714;88;21200;-68
2020/12/17 06:05:14;;;;;;;10.58;5.50;;;;;;;2.30;86.51;98682.03;1637167;86;21318;-70
2020/12/17 06:07:50;;;;;;;13.30;6.10;;;;;;;2.38;86.33;98687.62;1636247;87;21212;-75
2020/12/17 06:10:30;;;;;;;9.68;4.05;;;;;;;2.37;86.06;98693.19;1637403;88;21145;-71
2020/12/17 06:13:07;;;;;;;14.43;5.30;;;;;;;2.42;85.93;98700.67;1636482;88;21172;-68
2020/12/17 06:15:36;;;;;;;10.38;4.72;;;;;;;2.46;85.78;98701.34;1637248;86;21149;-68
2020/12/17 06:18:04;;;;;;;8.78;4.42;;;;;;;2.49;85.47;98712.76;1635614;88;21342;-69
2020/12/17 06:20:34;;;;;;;14.75;5.60;;;;;;;2.52;85.35;98713.88;1650546;87;21211;-68
2020/12/17 06:23:07;;;;;;;10.15;3.87;;;;;;;2.54;84.97;98723.59;1631775;88;21620;-68
2020/12/17 06:25:36;;;;;;;13.20;4.42;;;;;;;2.57;85.02;98724.75;1631841;87;21669;-68
2020/12/17 06:28:05;;;;;;;10.82;4.95;;;;;;;2.55;84.61;98728.66;1650678;86;21190;-69
2020/12/17 06:30:35;;;;;;;11.00;4.70;;;;;;;2.54;84.60;98727.44;1631036;88;21183;-68
2020/12/17 06:33:05;;;;;;;12.98;6.35;;;;;;;2.52;84.60;98733.95;1631932;88;21219;-68
2020/12/17 06:36:14;;;;;;;15.58;6.50;;;;;;;2.41;85.15;98740.05;1650369;87;21194;-71
2020/12/17 06:38:43;;;;;;;13.65;7.20;;;;;;;2.46;84.92;98739.80;1726011;83;21161;-69
2020/12/17 06:41:19;;;;;;;17.85;7.95;;;;;;;2.47;84.96;98724.80;1725937;83;21582;-69
2020/12/17 06:43:47;;;;;;;;;;;;;;;2.49;85.03;98725.09;1728781;83;21585;-67
2020/12/17 06:46:32;;;;;;;17.15;5.83;;;;;;;2.47;85.15;98726.08;1701420;83;20144;-67
2020/12/17 06:49:02;;;;;;;10.55;5.28;;;;;;;2.46;85.29;98720.57;1691614;82;21171;-67
2020/12/17 06:51:36;;;;;;;12.50;5.92;;;;;;;2.45;85.15;98720.22;1736014;82;21167;-67
2020/12/17 06:54:08;;;;;;;16.62;6.75;;;;;;;2.48;85.18;98726.47;1737648;82;21182;-67
2020/12/17 06:56:40;;;;;;;10.38;6.22;;;;;;;2.44;85.41;98728.80;1722094;82;21139;-67
2020/12/17 06:59:20;;;;;;;13.35;5.97;;;;;;;2.42;85.37;98734.44;1728247;81;21590;-67
2020/12/17 07:01:49;;;;;;;7.62;4.72;;;;;;;2.38;85.49;98727.34;1725924;83;21158;-67
2020/12/17 07:05:01;;;;;;;10.18;5.30;;;;;;;2.40;85.36;98730.69;1725845;83;21594;-66
2020/12/17 07:07:30;;;;;;;8.23;4.65;;;;;;;2.37;85.52;98733.41;1587507;89;21183;-68
2020/12/17 07:09:58;;;;;;;10.75;4.67;;;;;;;2.47;85.28;98738.91;1594277;90;21169;-67
2020/12/17 07:12:44;;;;;;;10.13;4.75;;;;;;;2.45;85.62;98731.75;1587875;89;21373;-69
2020/12/17 07:15:37;;;;;;;9.78;5.33;;;;;;;2.51;85.23;98732.27;1588986;90;21187;-68
2020/12/17 07:18:24;;;;;;;13.98;4.83;;;;;;;2.52;85.00;98730.55;1594216;90;21578;-68
2020/12/17 07:21:07;;;;;;;9.15;4.97;;;;;;;2.51;85.32;98729.71;1563370;91;21300;-67
2020/12/17 07:23:38;;;;;;;9.33;4.05;;;;;;;2.51;85.49;98730.99;1569368;90;21231;-67
2020/12/17 07:26:34;;;;;;;25.50;7.45;;;;;;;2.57;85.49;98728.59;1587720;89;21190;-67
2020/12/17 07:29:07;;;;;;;7.10;4.58;;;;;;;2.55;85.70;98729.11;1633961;86;21658;-68
2020/12/17 07:31:35;;;;;;;8.83;4.87;;;;;;;2.67;85.28;98731.91;1628014;88;21192;-68
2020/12/17 07:34:16;;;;;;;11.90;5.85;;;;;;;2.80;85.00;98732.15;1634872;87;21192;-68
2020/12/17 07:36:49;;;;;;;9.93;5.92;;;;;;;2.88;84.34;98735.62;1622977;87;21201;-68
2020/12/17 07:39:18;;;;;;;8.15;4.92;;;;;;;2.96;84.08;98737.34;1626513;87;21714;-68
2020/12/17 07:41:46;;;;;;;6.22;3.50;;;;;;;3.05;84.06;98726.16;1627547;88;21205;-70
2020/12/17 07:44:35;;;;;;;6.22;3.70;;;;;;;3.13;83.78;98725.31;1624544;88;21613;-68
2020/12/17 07:47:20;;;;;;;9.03;4.17;;;;;;;3.14;82.72;98723.13;1621222;88;21201;-68
2020/12/17 07:49:48;;;;;;;8.20;4.25;;;;;;;3.08;82.26;98722.59;1625674;88;21181;-66
2020/12/17 07:52:35;;;;;;;9.65;4.53;;;;;;;3.19;82.69;98723.70;1620594;88;21161;-67
2020/12/17 07:55:03;;;;;;;14.33;4.78;;;;;;;3.25;82.40;98718.27;1620714;88;21200;-68
2020/12/17 07:57:31;;;;;;;13.45;5.35;;;;;;;3.23;81.64;98712.37;1627290;87;21273;-67
2020/12/17 07:59:59;;;;;;;10.95;6.10;;;;;;;3.15;81.87;98729.09;1625547;88;21626;-66
2020/12/17 08:02:27;;;;;;;13.15;5.83;;;;;;;3.15;82.01;98732.47;1623060;87;21161;-68
2020/12/17 08:04:57;;;;;;;63.42;24.25;;;;;;;3.21;82.18;98730.89;1630594;87;21256;-71
2020/12/17 08:07:25;;;;;;;17.55;8.88;;;;;;;3.27;82.40;98731.01;1641540;87;21172;-72
2020/12/17 08:10:00;;;;;;;11.10;6.55;;;;;;;3.07;81.91;98726.92;1630622;87;21176;-74
2020/12/17 08:12:28;;;;;;;17.00;5.53;;;;;;;3.04;82.47;98735.20;1641773;86;21617;-74
2020/12/17 08:15:09;;;;;;;11.45;4.78;;;;;;;3.12;82.60;98739.49;1641740;87;21184;-74
2020/12/17 08:17:37;;;;;;;13.58;4.25;;;;;;;3.15;82.17;98736.31;1630551;87;21209;-74
2020/12/17 08:20:05;;;;;;;12.95;4.97;;;;;;;3.16;81.81;98745.68;1641816;87;21252;-69
2020/12/17 08:22:35;;;;;;;13.43;5.20;;;;;;;3.12;81.75;98740.33;1641867;86;21619;-68
2020/12/17 08:25:05;;;;;;;10.00;5.35;;;;;;;3.20;81.98;98739.94;1630597;87;21729;-68
2020/12/17 08:27:34;;;;;;;11.53;5.60;;;;;;;3.18;81.33;98742.60;1644873;85;21181;-69
2020/12/17 08:30:04;;;;;;;10.18;5.53;;;;;;;3.15;81.96;98753.00;1623221;87;21238;-70
2020/12/17 08:32:32;;;;;;;12.43;6.15;;;;;;;3.21;81.69;98746.29;1636061;86;21196;-70
2020/12/17 08:35:00;;;;;;;9.30;4.42;;;;;;;3.17;81.49;98756.33;1630065;88;21156;-70
2020/12/17 08:37:28;;;;;;;7.53;4.90;;;;;;;3.17;81.29;98755.05;1630338;87;21696;-68
2020/12/17 08:40:05;;;;;;;13.95;6.03;;;;;;;3.22;81.18;98741.54;1630282;87;21169;-71
2020/12/17 08:42:36;;;;;;;17.07;7.25;;;;;;;3.20;81.78;98754.05;1630357;87;21576;-70
2020/12/17 08:45:12;;;;;;;14.38;7.33;;;;;;;3.18;81.68;98750.75;1630204;87;21676;-72
2020/12/17 08:47:42;;;;;;;19.62;6.30;;;;;;;3.01;82.17;98760.57;1630346;88;21217;-71
2020/12/17 08:50:11;;;;;;;12.63;6.40;;;;;;;3.03;82.59;98747.23;1630423;87;21167;-70
2020/12/17 08:52:43;;;;;;;13.18;6.70;;;;;;;3.14;82.16;98750.08;1630415;87;21165;-70
2020/12/17 08:55:25;;;;;;;11.80;5.72;;;;;;;3.13;82.73;98751.42;1651979;86;21165;-72
2020/12/17 08:58:07;;;;;;;18.27;6.08;;;;;;;3.25;82.23;98745.22;1652200;87;21162;-68
2020/12/17 09:00:35;;;;;;;15.00;6.92;;;;;;;3.32;82.58;98744.45;1656863;85;21576;-67
2020/12/17 09:03:03;;;;;;;13.03;4.97;;;;;;;3.31;82.20;98746.18;1678581;85;21187;-67
2020/12/17 09:05:31;;;;;;;8.80;3.22;;;;;;;3.40;81.75;98741.03;1678401;85;21171;-71
2020/12/17 09:08:00;;;;;;;10.58;5.40;;;;;;;3.35;81.77;98741.27;1678343;85;21168;-68
2020/12/17 09:10:33;;;;;;;11.45;5.72;;;;;;;3.34;81.85;98741.36;1678596;85;21178;-70
2020/12/17 09:13:01;;;;;;;20.88;8.48;;;;;;;3.43;81.64;98742.60;1678345;85;21208;-67
2020/12/17 09:15:29;;;;;;;17.70;6.78;;;;;;;3.32;82.56;98741.43;1678199;85;21188;-69
2020/12/17 09:18:10;;;;;;;19.65;6.87;;;;;;;3.47;81.82;98733.38;1694187;84;21172;-67
2020/12/17 09:20:38;;;;;;;16.85;6.25;;;;;;;3.48;81.40;98729.91;1694071;84;21140;-70
2020/12/17 09:23:08;;;;;;;14.23;6.12;;;;;;;3.56;81.29;98729.51;1692598;84;21188;-69
2020/12/17 09:25:36;;;;;;;12.45;5.17;;;;;;;3.68;80.98;98725.02;1692862;84;21609;-69
2020/12/17 09:28:04;;;;;;;10.88;4.97;;;;;;;3.71;80.60;98725.68;1692731;85;21581;-69
2020/12/17 09:30:32;;;;;;;12.23;5.10;;;;;;;3.82;80.50;98723.81;1690609;84;21129;-69
2020/12/17 09:33:03;;;;;;;12.25;6.50;;;;;;;3.75;79.58;98729.74;1712235;84;21276;-69
2020/12/17 09:35:35;;;;;;;11.65;5.45;;;;;;;3.75;80.13;98726.34;1706329;83;21164;-70
2020/12/17 09:38:12;;;;;;;13.15;6.22;;;;;;;3.86;79.89;98724.47;1693339;85;21325;-72
2020/12/17 09:40:42;;;;;;;15.50;5.80;;;;;;;3.78;78.91;98719.30;1664301;85;21561;-68
2020/12/17 09:43:13;;;;;;;13.95;5.58;;;;;;;3.85;79.75;98721.10;1693521;85;21314;-69
2020/12/17 09:45:49;;;;;;;12.18;6.65;;;;;;;3.91;79.54;98716.91;1693475;83;21581;-68
2020/12/17 09:48:26;;;;;;;19.52;5.58;;;;;;;3.79;79.26;98717.56;1693534;83;21204;-70
2020/12/17 09:51:22;;;;;;;13.58;5.72;;;;;;;3.88;78.85;98710.66;1693526;84;21289;-70
2020/12/17 09:53:55;;;;;;;12.37;5.33;;;;;;;3.98;78.96;98706.66;1626910;87;21748;-67
2020/12/17 09:56:23;;;;;;;18.85;5.12;;;;;;;3.92;78.18;98717.28;1625819;86;21605;-70
2020/12/17 09:58:51;;;;;;;18.23;8.15;;;;;;;3.87;78.72;98706.87;1626946;88;21239;-72
2020/12/17 10:01:19;;;;;;;27.20;13.53;;;;;;;3.96;79.07;98708.50;1627021;87;21184;-72
2020/12/17 10:03:49;;;;;;;30.23;14.53;;;;;;;3.95;78.56;98720.13;1626865;87;21328;-68
2020/12/17 10:06:17;;;;;;;15.38;7.62;;;;;;;3.92;78.33;98716.00;1613166;89;21891;-68
2020/12/17 10:08:45;;;;;;;13.18;5.30;;;;;;;3.97;78.62;98714.47;1628968;88;21205;-69
2020/12/17 10:11:14;;;;;;;13.18;5.47;;;;;;;3.99;78.52;98717.77;1608660;89;21209;-69
2020/12/17 10:13:42;;;;;;;13.05;4.83;;;;;;;3.92;78.34;98722.88;1629080;88;21152;-68
2020/12/17 10:16:16;;;;;;;11.65;5.17;;;;;;;3.92;78.57;98727.56;1608359;89;21221;-69
2020/12/17 10:18:44;;;;;;;16.20;5.17;;;;;;;3.89;78.24;98725.14;1629023;88;21184;-69
2020/12/17 10:21:12;;;;;;;10.85;4.72;;;;;;;3.88;78.40;98731.20;1608658;89;21216;-69
2020/12/17 10:23:40;;;;;;;11.35;5.42;;;;;;;3.89;78.30;98725.14;1629144;88;21180;-69
2020/12/17 10:26:09;;;;;;;11.00;5.05;;;;;;;3.91;78.57;98723.33;1608285;88;21200;-68
2020/12/17 10:28:37;;;;;;;13.80;5.65;;;;;;;3.92;78.50;98721.14;1607256;89;21279;-69
2020/12/17 10:31:05;;;;;;;16.65;7.10;;;;;;;3.80;78.75;98720.52;1607262;89;21212;-67
2020/12/17 10:33:33;;;;;;;12.37;6.85;;;;;;;3.37;80.93;98723.23;1607437;89;21205;-68
2020/12/17 10:36:01;;;;;;;15.32;5.45;;;;;;;3.43;80.64;98723.34;1607011;88;21593;-68
2020/12/17 10:38:29;;;;;;;8.13;4.90;;;;;;;3.41;80.81;98718.77;1607181;88;21601;-68
2020/12/17 10:40:57;;;;;;;13.43;6.33;;;;;;;3.40;80.61;98717.09;1607281;89;21252;-69
2020/12/17 10:43:25;;;;;;;8.25;4.00;;;;;;;3.35;80.67;98718.61;1607002;89;21824;-70
2020/12/17 10:45:53;;;;;;;10.00;4.10;;;;;;;3.46;80.46;98716.34;1606778;89;21169;-68
2020/12/17 10:48:22;;;;;;;10.98;4.25;;;;;;;3.57;80.17;98713.20;1607299;89;21196;-71
2020/12/17 10:50:51;;;;;;;9.18;4.05;;;;;;;3.62;79.71;98708.66;1606934;88;21630;-68
2020/12/17 10:53:19;;;;;;;7.90;3.85;;;;;;;3.68;79.72;98709.16;1601397;89;21264;-68
2020/12/17 10:55:47;;;;;;;15.05;7.60;;;;;;;3.83;80.01;98707.49;1646156;86;21211;-69
2020/12/17 10:58:15;;;;;;;10.63;5.28;;;;;;;3.90;79.41;98702.39;1646406;87;21172;-69
2020/12/17 11:00:46;;;;;;;8.85;4.90;;;;;;;4.03;79.32;98699.53;1646138;86;21193;-70
2020/12/17 11:03:14;;;;;;;6.30;3.05;;;;;;;4.06;78.00;98700.64;1646210;86;21171;-70
2020/12/17 11:05:42;;;;;;;12.05;3.17;;;;;;;4.13;77.70;98710.12;1646202;86;21179;-72
2020/12/17 11:08:11;;;;;;;6.97;3.30;;;;;;;4.20;78.34;98710.19;1645916;86;21217;-69
2020/12/17 11:10:39;;;;;;;5.70;4.15;;;;;;;4.21;77.75;98704.94;1646129;87;21176;-69
2020/12/17 11:13:09;;;;;;;8.08;3.95;;;;;;;4.05;77.71;98706.69;1644505;87;21168;-67
2020/12/17 11:15:37;;;;;;;5.55;3.33;;;;;;;4.04;78.12;98710.20;1646134;86;21259;-68
2020/12/17 11:18:05;;;;;;;9.95;3.95;;;;;;;4.17;78.16;98715.02;1645939;87;21382;-69
2020/12/17 11:20:33;;;;;;;10.30;4.35;;;;;;;4.11;77.28;98711.52;1646072;87;21187;-68
2020/12/17 11:23:04;;;;;;;10.45;4.42;;;;;;;3.73;78.34;98704.61;1670322;86;21202;-68
2020/12/17 11:28:12;;;;;;;8.43;3.83;;;;;;;3.97;78.24;98702.91;1779890;79;23090;-69
2020/12/17 11:30:40;;;;;;;14.60;5.22;;;;;;;4.01;78.46;98702.63;1753669;82;21497;-68
2020/12/17 11:33:08;;;;;;;12.73;5.60;;;;;;;4.06;77.75;98703.22;1753669;81;21156;-69
2020/12/17 11:35:37;;;;;;;11.33;4.50;;;;;;;4.05;77.17;98700.72;1753710;81;21133;-68
2020/12/17 11:38:05;;;;;;;13.65;5.35;;;;;;;4.07;77.39;98695.89;1753830;80;21255;-70
2020/12/17 11:40:33;;;;;;;9.30;3.98;;;;;;;4.12;77.22;98690.50;1753569;82;21465;-68
2020/12/17 11:43:00;;;;;;;11.15;4.60;;;;;;;4.13;77.48;98701.95;1753650;82;21148;-68
2020/12/17 11:45:28;;;;;;;28.45;11.30;;;;;;;4.18;77.22;98702.55;1753762;81;21208;-69
2020/12/17 11:47:57;;;;;;;27.73;12.53;;;;;;;4.17;76.91;98703.91;1753829;82;21149;-69
2020/12/17 11:50:26;;;;;;;14.75;7.10;;;;;;;4.08;76.67;98712.14;1753734;81;21156;-68
2020/12/17 11:52:54;;;;;;;20.27;6.70;;;;;;;3.74;78.28;98711.83;1753733;81;21171;-68
2020/12/17 11:55:22;;;;;;;9.53;4.35;;;;;;;3.54;79.01;98709.03;1753638;81;21191;-69